createdAt,value
2018-09-16T00:01:22.962Z,9.17
2018-09-16T00:03:51.970Z,9.30
2018-09-16T00:06:20.930Z,9.33
2018-09-16T00:08:49.903Z,9.07
2018-09-16T00:11:18.861Z,8.83
2018-09-16T00:13:47.845Z,9.07
2018-09-16T00:16:16.843Z,8.10
2018-09-16T00:18:45.805Z,8.93
2018-09-16T00:21:14.795Z,9.03
2018-09-16T00:23:43.776Z,8.43
2018-09-16T00:26:12.729Z,8.50
2018-09-16T00:28:41.706Z,8.63
2018-09-16T00:31:10.680Z,8.37
2018-09-16T00:33:39.672Z,8.07
2018-09-16T00:36:08.806Z,8.53
2018-09-16T00:38:37.784Z,8.30
2018-09-16T00:41:06.760Z,8.57
2018-09-16T00:43:35.814Z,8.03
2018-09-16T00:46:04.774Z,9.00
2018-09-16T00:48:33.744Z,9.13
2018-09-16T00:51:02.706Z,9.10
2018-09-16T00:53:31.713Z,8.30
2018-09-16T00:56:00.738Z,8.97
2018-09-16T00:58:29.692Z,8.27
2018-09-16T01:00:59.379Z,9.00
2018-09-16T01:03:28.345Z,8.10
2018-09-16T01:06:02.671Z,8.40
2018-09-16T01:08:31.667Z,8.60
2018-09-16T01:11:00.647Z,8.43
2018-09-16T01:13:29.666Z,8.43
2018-09-16T01:15:58.675Z,8.13
2018-09-16T01:18:27.636Z,8.97
2018-09-16T01:20:56.595Z,8.67
2018-09-16T01:23:25.565Z,9.43
2018-09-16T01:25:57.533Z,8.60
2018-09-16T01:28:26.485Z,10.17
2018-09-16T01:30:55.567Z,9.30
2018-09-16T01:33:24.558Z,8.37
2018-09-16T01:35:53.528Z,8.30
2018-09-16T01:38:23.038Z,8.17
2018-09-16T01:40:52.969Z,8.30
2018-09-16T01:43:22.024Z,8.30
2018-09-16T01:45:51.009Z,8.47
2018-09-16T01:48:19.961Z,8.43
2018-09-16T01:50:48.924Z,7.87
2018-09-16T01:53:17.865Z,8.47
2018-09-16T01:55:46.827Z,7.70
2018-09-16T01:58:15.779Z,8.43
2018-09-16T02:00:44.761Z,8.10
2018-09-16T02:03:13.731Z,9.23
2018-09-16T02:05:47.946Z,8.10
2018-09-16T02:08:17.186Z,8.40
2018-09-16T02:10:46.166Z,8.70
2018-09-16T02:13:15.173Z,8.80
2018-09-16T02:15:44.126Z,7.87
2018-09-16T02:18:13.162Z,9.00
2018-09-16T02:20:42.330Z,8.73
2018-09-16T02:23:11.596Z,8.30
2018-09-16T02:25:41.514Z,8.33
2018-09-16T02:28:10.723Z,9.10
2018-09-16T02:30:39.750Z,9.03
2018-09-16T02:33:08.746Z,8.43
2018-09-16T02:35:37.829Z,8.77
2018-09-16T02:38:06.757Z,9.67
2018-09-16T02:40:36.354Z,9.33
2018-09-16T02:43:05.376Z,8.83
2018-09-16T02:45:34.722Z,9.60
2018-09-16T02:48:03.698Z,8.20
2018-09-16T02:50:32.706Z,8.63
2018-09-16T02:53:01.677Z,8.60
2018-09-16T02:55:30.727Z,8.60
2018-09-16T02:57:59.701Z,8.97
2018-09-16T03:00:28.771Z,10.03
2018-09-16T03:02:57.702Z,8.53
2018-09-16T03:05:31.859Z,9.30
2018-09-16T03:08:00.821Z,8.67
2018-09-16T03:10:29.875Z,9.60
2018-09-16T03:12:58.901Z,9.17
2018-09-16T03:15:27.886Z,9.30
2018-09-16T03:17:57.012Z,9.83
2018-09-16T03:20:25.982Z,10.03
2018-09-16T03:22:54.983Z,9.37
2018-09-16T03:25:23.935Z,9.50
2018-09-16T03:27:52.877Z,9.80
2018-09-16T03:30:21.830Z,9.47
2018-09-16T03:32:50.769Z,10.07
2018-09-16T03:35:19.829Z,9.93
2018-09-16T03:37:48.822Z,10.13
2018-09-16T03:40:17.806Z,10.50
2018-09-16T03:42:46.877Z,9.90
2018-09-16T03:45:15.830Z,9.10
2018-09-16T03:47:44.803Z,9.87
2018-09-16T03:50:13.745Z,9.50
2018-09-16T03:52:42.698Z,9.70
2018-09-16T03:55:11.831Z,9.33
2018-09-16T03:57:40.820Z,9.73
2018-09-16T04:00:09.770Z,8.97
2018-09-16T04:02:38.735Z,9.30
2018-09-16T04:05:07.693Z,8.60
2018-09-16T04:07:36.697Z,9.10
2018-09-16T04:10:05.931Z,9.10
2018-09-16T04:12:34.913Z,9.63
2018-09-16T04:15:03.943Z,9.63
2018-09-16T04:17:32.891Z,9.50
2018-09-16T04:20:01.881Z,9.60
2018-09-16T04:22:30.879Z,18.20
2018-09-16T04:24:59.830Z,9.17
2018-09-16T04:27:28.854Z,9.10
2018-09-16T04:29:57.852Z,8.73
2018-09-16T04:32:26.823Z,9.07
2018-09-16T04:34:55.810Z,8.87
2018-09-16T04:37:24.799Z,9.13
2018-09-16T04:39:53.794Z,8.70
2018-09-16T04:42:22.783Z,8.53
2018-09-16T04:44:51.766Z,9.00
2018-09-16T04:47:20.790Z,8.70
2018-09-16T04:49:49.803Z,8.93
2018-09-16T04:52:18.717Z,9.43
2018-09-16T04:54:47.663Z,9.60
2018-09-16T04:57:16.732Z,8.80
2018-09-16T04:59:45.685Z,9.00
2018-09-16T05:02:14.673Z,8.93
2018-09-16T05:04:43.617Z,8.90
2018-09-16T05:07:12.575Z,9.10
2018-09-16T05:09:41.559Z,9.13
2018-09-16T05:12:10.506Z,9.43
2018-09-16T05:14:39.472Z,9.10
2018-09-16T05:17:08.424Z,9.07
2018-09-16T05:19:37.527Z,9.57
2018-09-16T05:22:06.498Z,10.60
2018-09-16T05:24:35.863Z,9.30
2018-09-16T05:27:04.821Z,9.50
2018-09-16T05:29:33.794Z,9.00
2018-09-16T05:32:02.741Z,9.00
2018-09-16T05:34:31.705Z,9.63
2018-09-16T05:37:00.790Z,9.20
2018-09-16T05:39:29.781Z,9.57
2018-09-16T05:41:59.092Z,10.70
2018-09-16T05:44:28.094Z,9.60
2018-09-16T05:46:57.036Z,9.57
2018-09-16T05:49:26.049Z,9.50
2018-09-16T05:51:55.011Z,8.87
2018-09-16T05:54:23.971Z,9.67
2018-09-16T05:56:52.982Z,9.70
2018-09-16T05:59:22.689Z,8.40
2018-09-16T06:01:51.683Z,8.97
2018-09-16T06:04:20.677Z,9.83
2018-09-16T06:06:49.638Z,8.70
2018-09-16T06:09:18.609Z,9.17
2018-09-16T06:11:47.581Z,10.20
2018-09-16T06:14:16.550Z,9.90
2018-09-16T06:16:45.511Z,10.30
2018-09-16T06:19:14.503Z,9.70
2018-09-16T06:21:43.486Z,9.90
2018-09-16T06:24:12.449Z,9.20
2018-09-16T06:26:41.449Z,8.90
2018-09-16T06:29:10.439Z,9.37
2018-09-16T06:31:39.410Z,9.23
2018-09-16T06:34:08.393Z,8.83
2018-09-16T06:36:37.470Z,9.30
2018-09-16T06:39:09.362Z,9.40
2018-09-16T06:41:38.398Z,9.70
2018-09-16T06:44:07.613Z,10.57
2018-09-16T06:46:36.868Z,9.13
2018-09-16T06:49:06.077Z,9.50
2018-09-16T06:51:35.077Z,9.13
2018-09-16T06:54:04.099Z,8.97
2018-09-16T06:56:33.050Z,9.57
2018-09-16T06:59:02.007Z,8.67
2018-09-16T07:01:31.063Z,9.20
2018-09-16T07:04:00.007Z,9.47
2018-09-16T07:06:32.995Z,9.30
2018-09-16T07:09:01.986Z,9.17
2018-09-16T07:11:30.970Z,9.30
2018-09-16T07:14:00.008Z,8.67
2018-09-16T07:16:28.953Z,8.60
2018-09-16T07:18:57.921Z,8.97
2018-09-16T07:21:26.945Z,8.50
2018-09-16T07:23:55.890Z,9.10
2018-09-16T07:26:24.849Z,8.93
2018-09-16T07:28:53.957Z,8.40
2018-09-16T07:31:22.915Z,8.40
2018-09-16T07:33:51.948Z,8.40
2018-09-16T07:36:20.978Z,7.53
2018-09-16T07:38:49.919Z,8.37
2018-09-16T07:41:18.904Z,7.40
2018-09-16T07:43:47.902Z,6.73
2018-09-16T07:46:16.982Z,7.70
2018-09-16T07:48:45.963Z,6.67
2018-09-16T07:51:14.915Z,6.77
2018-09-16T07:53:43.978Z,6.63
2018-09-16T07:56:12.949Z,6.10
2018-09-16T07:58:42.036Z,5.80
2018-09-16T08:01:10.990Z,5.40
2018-09-16T08:03:40.028Z,4.80
2018-09-16T08:06:09.013Z,5.47
2018-09-16T08:10:59.069Z,3.60
2018-09-16T08:13:28.046Z,4.27
2018-09-16T08:15:57.020Z,4.07
2018-09-16T08:18:26.039Z,4.90
2018-09-16T08:20:55.053Z,4.90
2018-09-16T08:23:24.092Z,5.90
2018-09-16T08:25:53.106Z,4.23
2018-09-16T08:28:22.616Z,3.80
2018-09-16T08:30:51.578Z,4.60
2018-09-16T08:33:20.626Z,5.10
2018-09-16T08:35:49.576Z,4.83
2018-09-16T08:38:18.616Z,4.80
2018-09-16T08:40:47.565Z,4.47
2018-09-16T08:43:16.543Z,4.63
2018-09-16T08:45:45.598Z,6.27
2018-09-16T08:48:14.520Z,6.30
2018-09-16T08:50:43.487Z,4.17
2018-09-16T08:53:12.457Z,5.87
2018-09-16T08:55:41.465Z,7.77
2018-09-16T08:58:10.450Z,9.50
2018-09-16T09:00:39.420Z,4.40
2018-09-16T09:03:08.530Z,5.97
2018-09-16T09:05:37.509Z,6.33
2018-09-16T09:08:06.465Z,4.03
2018-09-16T09:10:35.422Z,4.13
2018-09-16T09:13:04.381Z,3.60
2018-09-16T09:15:33.414Z,3.87
2018-09-16T09:18:02.485Z,4.10
2018-09-16T09:20:31.508Z,3.97
2018-09-16T09:23:00.536Z,3.43
2018-09-16T09:25:29.551Z,3.67
2018-09-16T09:28:00.802Z,4.87
2018-09-16T09:30:29.801Z,3.87
2018-09-16T09:32:58.954Z,4.50
2018-09-16T09:35:27.889Z,6.13
2018-09-16T09:37:56.927Z,3.33
2018-09-16T09:40:26.004Z,4.27
2018-09-16T09:42:55.006Z,4.07
2018-09-16T09:45:23.942Z,5.43
2018-09-16T09:47:52.962Z,3.80
2018-09-16T09:50:22.054Z,3.90
2018-09-16T09:52:51.043Z,3.73
2018-09-16T09:55:20.325Z,9.60
2018-09-16T09:57:49.333Z,3.93
2018-09-16T10:00:20.095Z,3.67
2018-09-16T10:02:49.136Z,3.83
2018-09-16T10:05:18.174Z,3.50
2018-09-16T10:07:47.192Z,3.47
2018-09-16T10:10:16.470Z,3.30
2018-09-16T10:12:45.461Z,4.37
2018-09-16T10:15:14.461Z,4.20
2018-09-16T10:17:43.453Z,3.57
2018-09-16T10:20:12.465Z,4.13
2018-09-16T10:22:41.528Z,6.33
2018-09-16T10:25:10.434Z,4.80
2018-09-16T10:27:39.904Z,6.03
2018-09-16T10:30:08.928Z,5.63
2018-09-16T10:32:37.896Z,3.73
2018-09-16T10:35:07.090Z,5.77
2018-09-16T10:37:36.042Z,3.37
2018-09-16T10:40:05.050Z,3.87
2018-09-16T10:42:34.042Z,3.93
2018-09-16T10:45:03.040Z,4.33
2018-09-16T10:47:32.099Z,3.70
2018-09-16T10:50:01.084Z,3.90
2018-09-16T10:52:30.149Z,4.03
2018-09-16T10:54:59.133Z,4.07
2018-09-16T10:57:28.169Z,3.90
2018-09-16T10:59:57.142Z,3.00
2018-09-16T11:02:26.186Z,2.90
2018-09-16T11:04:55.169Z,4.40
2018-09-16T11:07:24.122Z,3.00
2018-09-16T11:09:53.095Z,3.00
2018-09-16T11:12:22.074Z,2.90
2018-09-16T11:14:51.066Z,4.27
2018-09-16T11:17:20.027Z,2.90
2018-09-16T11:19:48.999Z,2.90
2018-09-16T11:22:17.951Z,3.30
2018-09-16T11:24:46.909Z,2.70
2018-09-16T11:27:15.935Z,3.73
2018-09-16T11:29:44.887Z,2.57
2018-09-16T11:32:13.838Z,3.80
2018-09-16T11:34:42.842Z,3.53
2018-09-16T11:37:11.806Z,6.03
2018-09-16T11:39:40.802Z,4.80
2018-09-16T11:42:09.820Z,4.73
2018-09-16T11:44:38.761Z,3.13
2018-09-16T11:47:07.767Z,5.60
2018-09-16T11:52:12.017Z,2.97
2018-09-16T11:54:41.009Z,3.37
2018-09-16T11:57:09.957Z,3.00
2018-09-16T11:59:38.990Z,2.50
2018-09-16T12:02:08.014Z,2.50
2018-09-16T12:04:36.957Z,2.50
2018-09-16T12:07:05.984Z,3.80
2018-09-16T12:09:34.963Z,2.83
2018-09-16T12:12:04.114Z,4.27
2018-09-16T12:14:33.082Z,2.70
2018-09-16T12:17:02.087Z,2.80
2018-09-16T12:19:31.030Z,2.80
2018-09-16T12:22:06.078Z,3.03
2018-09-16T12:24:35.043Z,2.57
2018-09-16T12:27:04.165Z,2.80
2018-09-16T12:29:33.151Z,3.60
2018-09-16T12:32:02.423Z,4.13
2018-09-16T12:34:31.388Z,4.30
2018-09-16T12:37:00.378Z,2.40
2018-09-16T12:39:29.454Z,3.00
2018-09-16T12:41:58.479Z,2.47
2018-09-16T12:44:27.488Z,4.37
2018-09-16T12:46:56.487Z,4.50
2018-09-16T12:49:25.514Z,2.80
2018-09-16T12:51:54.952Z,2.57
2018-09-16T12:54:23.981Z,4.07
2018-09-16T12:56:53.741Z,3.13
2018-09-16T12:59:22.761Z,5.40
2018-09-16T13:01:51.748Z,2.30
2018-09-16T13:04:20.778Z,2.17
2018-09-16T13:06:49.859Z,2.47
2018-09-16T13:09:18.829Z,2.47
2018-09-16T13:11:47.926Z,2.33
2018-09-16T13:14:17.653Z,4.30
2018-09-16T13:16:46.645Z,4.70
2018-09-16T13:19:15.627Z,3.20
2018-09-16T13:21:44.663Z,4.20
2018-09-16T13:24:13.734Z,2.40
2018-09-16T13:26:42.716Z,5.53
2018-09-16T13:29:14.696Z,3.80
2018-09-16T13:31:43.804Z,4.17
2018-09-16T13:34:12.774Z,3.60
2018-09-16T13:36:41.743Z,2.40
2018-09-16T13:39:11.546Z,2.57
2018-09-16T13:41:40.731Z,3.53
2018-09-16T13:44:09.690Z,2.63
2018-09-16T13:46:38.976Z,2.20
2018-09-16T13:49:07.930Z,3.30
2018-09-16T13:51:36.960Z,3.00
2018-09-16T13:54:06.004Z,2.23
2018-09-16T13:56:34.982Z,2.63
2018-09-16T13:59:04.312Z,2.20
2018-09-16T14:01:33.253Z,2.70
2018-09-16T14:04:02.233Z,5.67
2018-09-16T14:06:31.185Z,2.13
2018-09-16T14:09:00.162Z,2.10
2018-09-16T14:11:29.160Z,2.27
2018-09-16T14:13:58.125Z,2.17
2018-09-16T14:16:27.077Z,3.00
2018-09-16T14:18:56.056Z,1.93
2018-09-16T14:21:25.033Z,3.47
2018-09-16T14:23:53.988Z,2.60
2018-09-16T14:26:22.946Z,3.77
2018-09-16T14:28:51.946Z,3.30
2018-09-16T14:31:20.922Z,3.23
2018-09-16T14:33:49.948Z,3.13
2018-09-16T14:36:18.913Z,2.00
2018-09-16T14:38:50.957Z,3.00
2018-09-16T14:41:19.944Z,3.67
2018-09-16T14:43:49.002Z,3.47
2018-09-16T14:46:17.954Z,3.20
2018-09-16T14:48:47.051Z,3.83
2018-09-16T14:51:16.153Z,4.13
2018-09-16T14:53:45.328Z,3.83
2018-09-16T14:56:14.318Z,5.37
2018-09-16T14:58:43.552Z,2.77
2018-09-16T15:01:12.673Z,3.90
2018-09-16T15:03:41.866Z,3.27
2018-09-16T15:06:11.265Z,3.70
2018-09-16T15:08:40.347Z,3.33
2018-09-16T15:11:09.341Z,4.90
2018-09-16T15:13:38.350Z,2.27
2018-09-16T15:16:07.415Z,5.07
2018-09-16T15:18:36.418Z,2.63
2018-09-16T15:21:05.482Z,2.77
2018-09-16T15:23:34.442Z,3.37
2018-09-16T15:26:03.472Z,3.43
2018-09-16T15:28:32.602Z,2.90
2018-09-16T15:31:01.582Z,3.33
2018-09-16T15:33:30.562Z,2.30
2018-09-16T15:35:59.547Z,2.93
2018-09-16T15:38:28.513Z,4.00
2018-09-16T15:40:57.524Z,3.80
2018-09-16T15:43:26.534Z,4.70
2018-09-16T15:45:55.522Z,3.30
2018-09-16T15:48:24.580Z,4.43
2018-09-16T15:50:53.505Z,3.57
2018-09-16T15:53:22.482Z,4.37
2018-09-16T15:55:51.495Z,2.80
2018-09-16T15:58:20.469Z,2.97
2018-09-16T16:00:49.730Z,3.57
2018-09-16T16:03:18.845Z,3.23
2018-09-16T16:05:47.826Z,3.30
2018-09-16T16:08:16.814Z,2.90
2018-09-16T16:10:46.816Z,3.40
2018-09-16T16:13:15.821Z,5.17
2018-09-16T16:15:44.822Z,4.37
2018-09-16T16:18:13.778Z,3.17
2018-09-16T16:20:42.852Z,2.73
2018-09-16T16:23:11.823Z,3.70
2018-09-16T16:25:41.163Z,5.07
2018-09-16T16:28:10.309Z,4.87
2018-09-16T16:30:39.645Z,3.17
2018-09-16T16:33:08.716Z,3.30
2018-09-16T16:35:37.704Z,3.80
2018-09-16T16:38:06.695Z,3.20
2018-09-16T16:40:35.787Z,3.27
2018-09-16T16:43:04.914Z,2.97
2018-09-16T16:45:33.983Z,3.00
2018-09-16T16:48:03.151Z,2.97
2018-09-16T16:50:32.209Z,6.37
2018-09-16T16:53:01.218Z,3.77
2018-09-16T16:55:30.268Z,5.73
2018-09-16T16:57:59.233Z,3.90
2018-09-16T17:00:28.283Z,5.47
2018-09-16T17:02:57.394Z,4.83
2018-09-16T17:05:26.527Z,2.87
2018-09-16T17:07:55.569Z,3.23
2018-09-16T17:10:24.553Z,3.27
2018-09-16T17:12:53.723Z,6.97
2018-09-16T17:15:22.791Z,12.13
2018-09-16T17:17:51.747Z,5.90
2018-09-16T17:20:20.815Z,5.00
2018-09-16T17:22:49.862Z,3.17
2018-09-16T17:25:18.863Z,4.23
2018-09-16T17:27:47.822Z,3.73
2018-09-16T17:30:17.235Z,10.67
2018-09-16T17:32:46.211Z,14.00
2018-09-16T17:35:15.190Z,7.90
2018-09-16T17:37:44.154Z,4.57
2018-09-16T17:40:13.147Z,9.93
2018-09-16T17:42:42.409Z,7.47
2018-09-16T17:45:11.387Z,4.07
2018-09-16T17:47:40.373Z,3.90
2018-09-16T17:50:09.364Z,4.27
2018-09-16T17:52:38.359Z,6.67
2018-09-16T17:55:07.347Z,6.03
2018-09-16T17:57:36.457Z,7.90
2018-09-16T18:00:05.562Z,6.33
2018-09-16T18:02:34.544Z,3.90
2018-09-16T18:05:03.573Z,13.47
2018-09-16T18:07:32.679Z,5.70
2018-09-16T18:10:01.684Z,9.80
2018-09-16T18:12:30.704Z,13.60
2018-09-16T18:14:59.674Z,8.80
2018-09-16T18:17:28.710Z,13.47
2018-09-16T18:19:57.663Z,4.97
2018-09-16T18:22:26.630Z,7.20
2018-09-16T18:24:55.667Z,4.50
2018-09-16T18:27:24.718Z,6.57
2018-09-16T18:29:54.101Z,4.80
2018-09-16T18:32:23.120Z,5.90
2018-09-16T18:34:52.095Z,7.53
2018-09-16T18:37:21.074Z,9.00
2018-09-16T18:39:50.106Z,8.07
2018-09-16T18:42:19.529Z,7.87
2018-09-16T18:44:48.597Z,11.70
2018-09-16T18:47:18.557Z,6.83
2018-09-16T18:49:48.450Z,7.50
2018-09-16T18:52:17.426Z,9.27
2018-09-16T18:54:46.457Z,6.80
2018-09-16T18:57:15.504Z,6.40
2018-09-16T18:59:44.510Z,6.30
2018-09-16T19:02:13.478Z,7.47
2018-09-16T19:04:42.568Z,7.33
2018-09-16T19:07:11.643Z,6.47
2018-09-16T19:09:40.718Z,8.13
2018-09-16T19:12:10.887Z,6.10
2018-09-16T19:14:40.917Z,7.27
2018-09-16T19:17:10.569Z,6.63
2018-09-16T19:19:39.963Z,6.97
2018-09-16T19:22:09.853Z,6.70
2018-09-16T19:24:39.245Z,15.50
2018-09-16T19:27:08.388Z,16.83
2018-09-16T19:29:37.441Z,7.93
2018-09-16T19:32:07.266Z,6.47
2018-09-16T19:34:36.524Z,6.30
2018-09-16T19:37:05.865Z,6.43
2018-09-16T19:39:35.102Z,7.07
2018-09-16T19:42:04.324Z,7.40
2018-09-16T19:44:33.466Z,6.10
2018-09-16T19:47:02.611Z,6.53
2018-09-16T19:49:31.849Z,6.47
2018-09-16T19:52:00.853Z,5.93
2018-09-16T19:54:29.841Z,5.80
2018-09-16T19:56:58.871Z,6.23
2018-09-16T19:59:28.215Z,5.93
2018-09-16T20:01:57.463Z,6.17
2018-09-16T20:04:27.711Z,5.93
2018-09-16T20:06:56.726Z,6.27
2018-09-16T20:09:26.179Z,6.73
2018-09-16T20:11:55.238Z,6.27
2018-09-16T20:14:24.265Z,5.90
2018-09-16T20:16:53.330Z,6.90
2018-09-16T20:19:22.310Z,6.40
2018-09-16T20:21:51.361Z,11.50
2018-09-16T20:24:20.426Z,6.90
2018-09-16T20:26:49.398Z,7.47
2018-09-16T20:29:18.394Z,6.33
2018-09-16T20:31:47.473Z,6.77
2018-09-16T20:34:16.961Z,6.80
2018-09-16T20:36:45.979Z,6.63
2018-09-16T20:39:14.966Z,6.73
2018-09-16T20:41:43.936Z,9.17
2018-09-16T20:44:12.958Z,6.40
2018-09-16T20:46:41.957Z,6.97
2018-09-16T20:49:10.971Z,6.50
2018-09-16T20:51:39.937Z,6.47
2018-09-16T20:54:08.913Z,8.27
2018-09-16T20:56:38.034Z,6.40
2018-09-16T20:59:07.054Z,5.87
2018-09-16T21:01:36.093Z,7.50
2018-09-16T21:04:05.120Z,11.43
2018-09-16T21:06:34.205Z,8.00
2018-09-16T21:09:03.594Z,8.00
2018-09-16T21:11:32.681Z,8.70
2018-09-16T21:14:01.707Z,7.60
2018-09-16T21:16:30.782Z,7.73
2018-09-16T21:18:59.739Z,6.93
2018-09-16T21:21:28.727Z,7.57
2018-09-16T21:23:57.685Z,7.03
2018-09-16T21:26:26.930Z,6.87
2018-09-16T21:28:55.717Z,7.30
2018-09-16T21:31:24.970Z,10.10
2018-09-16T21:33:53.989Z,6.73
2018-09-16T21:36:23.130Z,8.00
2018-09-16T21:38:52.168Z,7.23
2018-09-16T21:41:21.474Z,7.73
2018-09-16T21:43:50.603Z,7.33
2018-09-16T21:46:19.574Z,7.63
2018-09-16T21:48:48.710Z,7.77
2018-09-16T21:51:18.197Z,9.27
2018-09-16T21:53:47.362Z,6.57
2018-09-16T21:56:16.381Z,7.37
2018-09-16T21:58:45.648Z,7.23
2018-09-16T22:01:14.654Z,7.63
2018-09-16T22:03:43.639Z,7.67
2018-09-16T22:06:12.674Z,8.27
2018-09-16T22:08:41.639Z,7.67
2018-09-16T22:11:10.617Z,8.07
2018-09-16T22:13:39.711Z,7.70
2018-09-16T22:16:08.764Z,7.83
2018-09-16T22:18:37.729Z,8.07
2018-09-16T22:21:06.754Z,8.07
2018-09-16T22:23:35.766Z,9.07
2018-09-16T22:26:04.752Z,12.57
2018-09-16T22:28:33.714Z,8.70
2018-09-16T22:31:02.743Z,9.67
2018-09-16T22:33:31.722Z,9.00
2018-09-16T22:36:00.729Z,8.47
2018-09-16T22:38:29.759Z,8.30
2018-09-16T22:40:58.789Z,8.70
2018-09-16T22:43:27.750Z,8.50
2018-09-16T22:45:56.823Z,8.70
2018-09-16T22:48:25.787Z,8.60
2018-09-16T22:50:54.888Z,8.83
2018-09-16T22:53:24.035Z,8.03
2018-09-16T22:55:52.997Z,8.67
2018-09-16T22:58:21.946Z,8.47
2018-09-16T23:00:50.931Z,10.13
2018-09-16T23:03:19.934Z,8.60
2018-09-16T23:05:48.876Z,8.73
2018-09-16T23:08:17.841Z,8.57
2018-09-16T23:10:46.792Z,8.07
2018-09-16T23:13:15.762Z,8.70
2018-09-16T23:15:44.714Z,8.37
2018-09-16T23:18:13.783Z,8.23
2018-09-16T23:20:43.591Z,8.23
2018-09-16T23:23:12.610Z,8.73
2018-09-16T23:25:41.569Z,8.50
2018-09-16T23:28:10.526Z,8.53
2018-09-16T23:30:39.542Z,8.90
2018-09-16T23:33:08.598Z,10.50
2018-09-16T23:35:37.615Z,8.43
2018-09-16T23:38:06.834Z,8.00
2018-09-16T23:40:35.807Z,7.70
2018-09-16T23:43:04.831Z,8.17
2018-09-16T23:45:33.902Z,8.40
2018-09-16T23:48:02.834Z,8.40
2018-09-16T23:50:31.802Z,8.87
2018-09-16T23:53:00.899Z,8.43
2018-09-16T23:55:29.852Z,8.90
2018-09-16T23:57:58.822Z,8.43
